»·PEaware :: N1399 KOXR-KSAN

N1399 :: KOXR-KSAN

FLIGHT INFORMATION

Flight Status: Arrived
Operator: Privately registered:
United States
More flights under this callsign
Pilot: David C. (16084)
Aircraft: SOCATA TBM-900
(TBM9)
More flights by this aircraft type
Origin: KOXR Oxnard
United States
Destination: KSAN San Diego Intl-Lindbergh
United States
More flights between these airports :: More routes between these airports
Route: +VTU V208 SXC V208 LAX118R CARDI MZB320R MZB
File this flight plan on PilotEdge
Remarks: VTUP28
Altitude:
(Current/Filed)
9,000ft
Speed:
(Current/Filed)
267kts
Departed: 12-Jan-20 12:13 PM
Arrived: 12-Jan-20 01:03 PM
Distance/Time
Traveled:
135nm/0:50
Distance/Time
To Go:
Arrived

Flight Plot

Page will automatically refresh every two minutes.


Map Options




Map Legend


Flown Route
Filed Route
Departure Airport
Arrival Airport
Navaid (VOR, NDB)
Fix

Horizontal Profiles

Position Reports

Time Latitude Longitude Heading Altitude Ground
Speed
12-Jan-20 11:37 34.198720 -119.202074 0 44ft 0kts
12-Jan-20 11:38 34.198720 -119.202074 0 44ft 0kts
12-Jan-20 11:39 34.198719 -119.202074 360 44ft 0kts
12-Jan-20 11:40 34.198719 -119.202074 360 44ft 0kts
12-Jan-20 11:41 34.198719 -119.202074 360 44ft 0kts
12-Jan-20 11:42 34.198719 -119.202074 0 44ft 0kts
12-Jan-20 11:43 34.198719 -119.202074 360 44ft 0kts
12-Jan-20 11:44 34.198719 -119.202074 360 44ft 0kts
12-Jan-20 11:45 34.198719 -119.202074 360 44ft 0kts
12-Jan-20 11:46 34.198720 -119.202074 360 44ft 0kts
12-Jan-20 11:47 34.198720 -119.202074 360 44ft 0kts
12-Jan-20 11:48 34.198720 -119.202074 360 44ft 0kts
12-Jan-20 11:49 34.198720 -119.202074 360 44ft 0kts
12-Jan-20 11:50 34.198720 -119.202074 360 44ft 0kts
12-Jan-20 11:51 34.198720 -119.202074 360 44ft 0kts
12-Jan-20 11:52 34.198720 -119.202074 360 44ft 0kts
12-Jan-20 11:53 34.198720 -119.202074 360 44ft 0kts
12-Jan-20 11:54 34.198720 -119.202074 360 44ft 0kts
12-Jan-20 11:55 34.198720 -119.202074 360 44ft 0kts
12-Jan-20 11:56 34.198720 -119.202074 360 44ft 0kts
12-Jan-20 11:57 34.198720 -119.202074 360 44ft 0kts
12-Jan-20 11:58 34.198720 -119.202074 360 44ft 0kts
12-Jan-20 11:59 34.198720 -119.202074 360 44ft 0kts
12-Jan-20 12:00 34.198720 -119.202074 360 44ft 0kts
12-Jan-20 12:01 34.198720 -119.202074 360 44ft 0kts
12-Jan-20 12:02 34.198720 -119.202074 360 44ft 0kts
12-Jan-20 12:03 34.198720 -119.202074 360 44ft 0kts
12-Jan-20 12:04 34.198720 -119.202074 360 44ft 0kts
12-Jan-20 12:05 34.198720 -119.202074 360 44ft 0kts
12-Jan-20 12:06 34.199031 -119.202073 0 44ft 4kts
12-Jan-20 12:07 34.199331 -119.202069 1 44ft 0kts
12-Jan-20 12:08 34.199526 -119.202064 1 44ft 4kts
12-Jan-20 12:09 34.199747 -119.197792 73 44ft 11kts
12-Jan-20 12:10 34.199961 -119.197560 6 44ft 0kts
12-Jan-20 12:11 34.200730 -119.197708 284 44ft 7kts
12-Jan-20 12:12 34.201463 -119.226063 274 875ft 136kts
12-Jan-20 12:13 34.165444 -119.224643 139 1676ft 185kts
12-Jan-20 12:14 34.126061 -119.180907 132 2509ft 219kts
12-Jan-20 12:15 34.091763 -119.112542 117 2502ft 247kts
12-Jan-20 12:16 34.063293 -119.036667 115 2507ft 248kts
12-Jan-20 12:17 34.045156 -118.956413 102 2508ft 247kts
12-Jan-20 12:18 34.033214 -118.876254 99 2507ft 239kts
12-Jan-20 12:19 34.027061 -118.796514 88 2509ft 239kts
12-Jan-20 12:20 34.031521 -118.716315 84 2500ft 239kts
12-Jan-20 12:21 34.039348 -118.636127 83 2491ft 240kts
12-Jan-20 12:22 34.046670 -118.561985 83 3720ft 209kts
12-Jan-20 12:23 34.052732 -118.492337 83 4923ft 225kts
12-Jan-20 12:24 34.094726 -118.454025 330 4913ft 231kts
12-Jan-20 12:25 34.150290 -118.488547 330 5494ft 217kts
12-Jan-20 12:26 34.199415 -118.527750 284 5462ft 201kts
12-Jan-20 12:27 34.155791 -118.541869 153 5506ft 227kts
12-Jan-20 12:28 34.097270 -118.510187 160 5489ft 230kts
12-Jan-20 12:29 34.039843 -118.482010 161 5490ft 216kts
12-Jan-20 12:30 33.985948 -118.456008 162 5487ft 197kts
12-Jan-20 12:31 33.935822 -118.433366 162 5489ft 187kts
12-Jan-20 12:32 33.896877 -118.391522 140 5495ft 190kts
12-Jan-20 12:33 33.858427 -118.348722 141 5493ft 192kts
12-Jan-20 12:34 33.817425 -118.303920 140 5492ft 203kts
12-Jan-20 12:35 33.774517 -118.257270 139 5489ft 209kts
12-Jan-20 12:36 33.731382 -118.209598 136 5492ft 211kts
12-Jan-20 12:37 33.694597 -118.151845 114 5510ft 224kts
12-Jan-20 12:38 33.668489 -118.082913 109 5509ft 226kts
12-Jan-20 12:39 33.644770 -118.012858 109 5502ft 226kts
12-Jan-20 12:40 33.621007 -117.942615 109 5494ft 226kts
12-Jan-20 12:41 33.596930 -117.872136 110 6418ft 232kts
12-Jan-20 12:42 33.572345 -117.803589 110 8235ft 214kts
12-Jan-20 12:43 33.549296 -117.738949 110 10210ft 215kts
12-Jan-20 12:44 33.512243 -117.678829 133 11503ft 254kts
12-Jan-20 12:45 33.459666 -117.612332 134 11488ft 287kts
12-Jan-20 12:46 33.403347 -117.542837 137 11485ft 292kts
12-Jan-20 12:47 33.344574 -117.475094 137 11453ft 294kts
12-Jan-20 12:48 33.285761 -117.411999 140 10399ft 279kts
12-Jan-20 12:49 33.226631 -117.353147 145 9265ft 275kts
12-Jan-20 12:50 33.161300 -117.305645 154 7960ft 273kts
12-Jan-20 12:51 33.091100 -117.271608 163 6657ft 270kts
12-Jan-20 12:52 33.018566 -117.251952 173 5469ft 261kts
12-Jan-20 12:53 32.953627 -117.233510 180 5472ft 233kts
12-Jan-20 12:54 32.896514 -117.230405 181 5455ft 176kts
12-Jan-20 12:55 32.848905 -117.227615 182 5525ft 166kts
12-Jan-20 12:56 32.803061 -117.224768 167 5465ft 166kts
12-Jan-20 12:57 32.770758 -117.200458 143 3758ft 118kts
12-Jan-20 12:58 32.751483 -117.172360 115 2129ft 101kts
12-Jan-20 12:59 32.740353 -117.141885 132 1396ft 105kts
12-Jan-20 13:00 32.726116 -117.158343 281 654ft 87kts
12-Jan-20 13:01 32.732321 -117.184817 288 27ft 73kts
12-Jan-20 13:02 32.734849 -117.190283 98 20ft 0kts
12-Jan-20 13:03 32.734350 -117.188229 106 20ft 16kts
12-Jan-20 13:04 32.732500 -117.180434 105 20ft 36kts
12-Jan-20 13:05 32.732167 -117.176889 191 20ft 0kts
12-Jan-20 13:06 32.732167 -117.176889 191 20ft 0kts
12-Jan-20 13:07 32.732167 -117.176889 191 20ft 0kts
12-Jan-20 13:08 32.732167 -117.176889 191 20ft 0kts
12-Jan-20 13:09 32.732167 -117.176889 191 20ft 0kts
12-Jan-20 13:10 32.732167 -117.176889 191 20ft 0kts

Navigation Log

Ident Type
Flight plan parsing failed, navigation log unavailable